Terminal Aerodrome Forecast
Issued by NWS

Home | Current Version | Previous Version | Graphics & Text | Print | Product List | Glossary On
Versions: 1 2 3 4 5 6 7 8 9 10 11 12 13 14 15 16
000
FTUS43 KGRB 182015 AAA
TAFCWA
TAF AMD
KCWA 182015Z 1820/1918 34013G18KT P6SM OVC020
     FM182300 31012KT P6SM SCT020 BKN035
      TEMPO 1823/1902 BKN020
     FM190200 31012KT P6SM BKN035
      TEMPO 1905/1909 BKN025
     FM190900 30010KT P6SM SCT035 BKN200
     FM191500 30011KT P6SM SCT040 BKN200=

USA.gov is the U.S. government's official web portal to all federal, state and local government web resources and services.